sensor_id;sensor_type;location;lat;lon;timestamp;temperature;humidity
1021;DHT22;499;42.648;23.270;2022-11-23T00:02:21;6.40;99.90
1021;DHT22;499;42.648;23.270;2022-11-23T00:04:48;6.40;99.90
1021;DHT22;499;42.648;23.270;2022-11-23T00:07:15;6.50;99.90
1021;DHT22;499;42.648;23.270;2022-11-23T00:09:42;6.50;99.90
1021;DHT22;499;42.648;23.270;2022-11-23T00:12:09;6.50;99.90
1021;DHT22;499;42.648;23.270;2022-11-23T00:14:36;6.50;99.90
1021;DHT22;499;42.648;23.270;2022-11-23T00:17:04;6.40;99.90
1021;DHT22;499;42.648;23.270;2022-11-23T00:19:31;6.40;99.90
1021;DHT22;499;42.648;23.270;2022-11-23T00:21:58;6.40;99.90
1021;DHT22;499;42.648;23.270;2022-11-23T00:24:25;6.40;99.90
1021;DHT22;499;42.648;23.270;2022-11-23T00:26:52;6.40;99.90
1021;DHT22;499;42.648;23.270;2022-11-23T00:29:19;6.40;99.90
1021;DHT22;499;42.648;23.270;2022-11-23T00:31:46;6.60;99.90
1021;DHT22;499;42.648;23.270;2022-11-23T00:34:15;6.60;99.90
1021;DHT22;499;42.648;23.270;2022-11-23T00:36:42;6.60;99.90
1021;DHT22;499;42.648;23.270;2022-11-23T00:39:09;6.60;99.90
1021;DHT22;499;42.648;23.270;2022-11-23T00:41:36;6.60;99.90
1021;DHT22;499;42.648;23.270;2022-11-23T00:44:03;6.60;99.90
1021;DHT22;499;42.648;23.270;2022-11-23T00:46:30;6.60;99.90
1021;DHT22;499;42.648;23.270;2022-11-23T00:48:57;6.60;99.90
1021;DHT22;499;42.648;23.270;2022-11-23T00:51:30;6.80;99.90
1021;DHT22;499;42.648;23.270;2022-11-23T00:53:58;6.80;99.90
1021;DHT22;499;42.648;23.270;2022-11-23T00:56:26;6.80;99.90
1021;DHT22;499;42.648;23.270;2022-11-23T00:58:54;6.90;99.90
1021;DHT22;499;42.648;23.270;2022-11-23T01:01:23;6.90;99.90
1021;DHT22;499;42.648;23.270;2022-11-23T01:03:52;7.00;99.90
1021;DHT22;499;42.648;23.270;2022-11-23T01:06:22;7.00;99.90
1021;DHT22;499;42.648;23.270;2022-11-23T01:08:52;7.00;99.90
1021;DHT22;499;42.648;23.270;2022-11-23T01:11:20;6.90;99.90
1021;DHT22;499;42.648;23.270;2022-11-23T01:13:50;6.80;99.90
1021;DHT22;499;42.648;23.270;2022-11-23T01:16:19;6.80;99.90
1021;DHT22;499;42.648;23.270;2022-11-23T01:18:50;6.80;99.90
1021;DHT22;499;42.648;23.270;2022-11-23T01:21:17;6.90;99.90
1021;DHT22;499;42.648;23.270;2022-11-23T01:23:44;6.90;99.90
1021;DHT22;499;42.648;23.270;2022-11-23T01:26:12;6.90;99.90
1021;DHT22;499;42.648;23.270;2022-11-23T01:28:40;7.00;99.90
1021;DHT22;499;42.648;23.270;2022-11-23T01:31:10;7.10;99.90
1021;DHT22;499;42.648;23.270;2022-11-23T01:33:37;7.10;99.90
1021;DHT22;499;42.648;23.270;2022-11-23T01:36:09;7.30;99.90
1021;DHT22;499;42.648;23.270;2022-11-23T01:38:36;7.30;99.90
1021;DHT22;499;42.648;23.270;2022-11-23T01:41:03;7.30;99.90
1021;DHT22;499;42.648;23.270;2022-11-23T01:43:32;7.20;99.90
1021;DHT22;499;42.648;23.270;2022-11-23T01:46:00;7.00;99.90
1021;DHT22;499;42.648;23.270;2022-11-23T01:48:31;7.00;99.90
1021;DHT22;499;42.648;23.270;2022-11-23T01:51:01;7.10;99.90
1021;DHT22;499;42.648;23.270;2022-11-23T01:53:31;7.10;99.90
1021;DHT22;499;42.648;23.270;2022-11-23T01:55:59;7.10;99.90
1021;DHT22;499;42.648;23.270;2022-11-23T01:58:30;7.10;99.90
1021;DHT22;499;42.648;23.270;2022-11-23T02:01:00;7.10;99.90
1021;DHT22;499;42.648;23.270;2022-11-23T02:03:27;7.10;99.90
1021;DHT22;499;42.648;23.270;2022-11-23T02:05:58;7.10;99.90
1021;DHT22;499;42.648;23.270;2022-11-23T02:08:27;7.10;99.90
1021;DHT22;499;42.648;23.270;2022-11-23T02:10:55;7.20;99.90
1021;DHT22;499;42.648;23.270;2022-11-23T02:13:23;7.20;99.90
1021;DHT22;499;42.648;23.270;2022-11-23T02:15:51;7.20;99.90
1021;DHT22;499;42.648;23.270;2022-11-23T02:18:23;7.20;99.90
1021;DHT22;499;42.648;23.270;2022-11-23T02:20:52;7.20;99.90
1021;DHT22;499;42.648;23.270;2022-11-23T02:23:29;7.20;99.90
1021;DHT22;499;42.648;23.270;2022-11-23T02:26:02;7.20;99.90
1021;DHT22;499;42.648;23.270;2022-11-23T02:28:36;7.10;99.90
1021;DHT22;499;42.648;23.270;2022-11-23T02:31:04;7.00;99.90
1021;DHT22;499;42.648;23.270;2022-11-23T02:33:31;6.90;99.90
1021;DHT22;499;42.648;23.270;2022-11-23T02:36:00;6.80;99.90
1021;DHT22;499;42.648;23.270;2022-11-23T02:38:29;6.70;99.90
1021;DHT22;499;42.648;23.270;2022-11-23T02:40:57;6.50;99.90
1021;DHT22;499;42.648;23.270;2022-11-23T02:43:25;6.50;99.90
1021;DHT22;499;42.648;23.270;2022-11-23T02:45:55;6.40;99.90
1021;DHT22;499;42.648;23.270;2022-11-23T02:48:22;6.30;99.90
1021;DHT22;499;42.648;23.270;2022-11-23T02:50:50;6.40;99.90
1021;DHT22;499;42.648;23.270;2022-11-23T02:53:17;6.40;99.90
1021;DHT22;499;42.648;23.270;2022-11-23T02:55:44;6.50;99.90
1021;DHT22;499;42.648;23.270;2022-11-23T02:58:11;6.50;99.90
1021;DHT22;499;42.648;23.270;2022-11-23T03:00:40;6.60;99.90
1021;DHT22;499;42.648;23.270;2022-11-23T03:03:07;6.60;99.90
1021;DHT22;499;42.648;23.270;2022-11-23T03:05:34;6.70;99.90
1021;DHT22;499;42.648;23.270;2022-11-23T03:08:01;6.60;99.90
1021;DHT22;499;42.648;23.270;2022-11-23T03:10:28;6.60;99.90
1021;DHT22;499;42.648;23.270;2022-11-23T03:12:56;6.60;99.90
1021;DHT22;499;42.648;23.270;2022-11-23T03:15:23;6.50;99.90
1021;DHT22;499;42.648;23.270;2022-11-23T03:17:51;6.50;99.90
1021;DHT22;499;42.648;23.270;2022-11-23T03:20:18;6.60;99.90
1021;DHT22;499;42.648;23.270;2022-11-23T03:22:46;6.70;99.90
1021;DHT22;499;42.648;23.270;2022-11-23T03:25:13;6.70;99.90
1021;DHT22;499;42.648;23.270;2022-11-23T03:27:40;6.70;99.90
1021;DHT22;499;42.648;23.270;2022-11-23T03:30:08;6.60;99.90
1021;DHT22;499;42.648;23.270;2022-11-23T03:32:35;6.50;99.90
1021;DHT22;499;42.648;23.270;2022-11-23T03:35:05;6.50;99.90
1021;DHT22;499;42.648;23.270;2022-11-23T03:37:32;6.40;99.90
1021;DHT22;499;42.648;23.270;2022-11-23T03:39:59;6.30;99.90
1021;DHT22;499;42.648;23.270;2022-11-23T03:42:26;6.30;99.90
1021;DHT22;499;42.648;23.270;2022-11-23T03:44:53;6.30;99.90
1021;DHT22;499;42.648;23.270;2022-11-23T03:47:20;6.30;99.90
1021;DHT22;499;42.648;23.270;2022-11-23T03:49:47;6.30;99.90
1021;DHT22;499;42.648;23.270;2022-11-23T03:52:16;6.30;99.90
1021;DHT22;499;42.648;23.270;2022-11-23T03:54:43;6.20;99.90
1021;DHT22;499;42.648;23.270;2022-11-23T03:57:11;6.10;99.90
1021;DHT22;499;42.648;23.270;2022-11-23T03:59:38;6.20;99.90
1021;DHT22;499;42.648;23.270;2022-11-23T04:02:05;6.20;99.90
1021;DHT22;499;42.648;23.270;2022-11-23T04:04:33;6.10;99.90
1021;DHT22;499;42.648;23.270;2022-11-23T04:07:00;6.10;99.90
1021;DHT22;499;42.648;23.270;2022-11-23T04:09:29;6.00;99.90
1021;DHT22;499;42.648;23.270;2022-11-23T04:11:56;6.00;99.90
1021;DHT22;499;42.648;23.270;2022-11-23T04:14:23;6.00;99.90
1021;DHT22;499;42.648;23.270;2022-11-23T04:16:50;5.90;99.90
1021;DHT22;499;42.648;23.270;2022-11-23T04:19:17;5.90;99.90
1021;DHT22;499;42.648;23.270;2022-11-23T04:21:44;5.90;99.90
1021;DHT22;499;42.648;23.270;2022-11-23T04:24:11;5.90;99.90
1021;DHT22;499;42.648;23.270;2022-11-23T04:26:39;6.10;99.90
1021;DHT22;499;42.648;23.270;2022-11-23T04:29:06;6.00;99.90
1021;DHT22;499;42.648;23.270;2022-11-23T04:31:33;6.10;99.90
1021;DHT22;499;42.648;23.270;2022-11-23T04:34:00;6.10;99.90
1021;DHT22;499;42.648;23.270;2022-11-23T04:36:28;6.20;99.90
1021;DHT22;499;42.648;23.270;2022-11-23T04:38:55;6.00;99.90
1021;DHT22;499;42.648;23.270;2022-11-23T04:41:22;6.00;99.90
1021;DHT22;499;42.648;23.270;2022-11-23T04:43:51;5.90;99.90
1021;DHT22;499;42.648;23.270;2022-11-23T04:46:18;5.80;99.90
1021;DHT22;499;42.648;23.270;2022-11-23T04:48:45;5.90;99.90
1021;DHT22;499;42.648;23.270;2022-11-23T04:51:13;6.00;99.90
1021;DHT22;499;42.648;23.270;2022-11-23T04:53:40;6.00;99.90
1021;DHT22;499;42.648;23.270;2022-11-23T04:56:08;5.90;99.90
1021;DHT22;499;42.648;23.270;2022-11-23T04:58:35;6.00;99.90
1021;DHT22;499;42.648;23.270;2022-11-23T05:01:05;5.90;99.90
1021;DHT22;499;42.648;23.270;2022-11-23T05:03:32;6.00;99.90
1021;DHT22;499;42.648;23.270;2022-11-23T05:06:01;6.00;99.90
1021;DHT22;499;42.648;23.270;2022-11-23T05:08:28;6.00;99.90
1021;DHT22;499;42.648;23.270;2022-11-23T05:10:56;6.10;99.90
1021;DHT22;499;42.648;23.270;2022-11-23T05:13:23;6.20;99.90
1021;DHT22;499;42.648;23.270;2022-11-23T05:15:50;6.20;99.90
1021;DHT22;499;42.648;23.270;2022-11-23T05:18:19;6.20;99.90
1021;DHT22;499;42.648;23.270;2022-11-23T05:20:46;6.30;99.90
1021;DHT22;499;42.648;23.270;2022-11-23T05:23:13;6.10;99.90
1021;DHT22;499;42.648;23.270;2022-11-23T05:25:40;6.20;99.90
1021;DHT22;499;42.648;23.270;2022-11-23T05:28:09;6.20;99.90
1021;DHT22;499;42.648;23.270;2022-11-23T05:30:40;6.20;99.90
1021;DHT22;499;42.648;23.270;2022-11-23T05:33:07;6.30;99.90
1021;DHT22;499;42.648;23.270;2022-11-23T05:35:35;6.30;99.90
1021;DHT22;499;42.648;23.270;2022-11-23T05:38:02;6.40;99.90
1021;DHT22;499;42.648;23.270;2022-11-23T05:40:29;6.40;99.90
1021;DHT22;499;42.648;23.270;2022-11-23T05:42:57;6.50;99.90
1021;DHT22;499;42.648;23.270;2022-11-23T05:45:25;6.60;99.90
1021;DHT22;499;42.648;23.270;2022-11-23T05:47:53;6.60;99.90
1021;DHT22;499;42.648;23.270;2022-11-23T05:50:22;6.80;99.90
1021;DHT22;499;42.648;23.270;2022-11-23T05:52:50;6.60;99.90
1021;DHT22;499;42.648;23.270;2022-11-23T05:55:17;6.60;99.90
1021;DHT22;499;42.648;23.270;2022-11-23T05:57:45;6.70;99.90
1021;DHT22;499;42.648;23.270;2022-11-23T06:00:13;6.60;99.90
1021;DHT22;499;42.648;23.270;2022-11-23T06:02:40;6.60;99.90
1021;DHT22;499;42.648;23.270;2022-11-23T06:05:08;6.60;99.90
1021;DHT22;499;42.648;23.270;2022-11-23T06:07:35;6.50;99.90
1021;DHT22;499;42.648;23.270;2022-11-23T06:10:05;6.60;99.90
1021;DHT22;499;42.648;23.270;2022-11-23T06:12:32;6.50;99.90
1021;DHT22;499;42.648;23.270;2022-11-23T06:14:59;6.50;99.90
1021;DHT22;499;42.648;23.270;2022-11-23T06:17:26;6.50;99.90
1021;DHT22;499;42.648;23.270;2022-11-23T06:19:54;6.60;99.90
1021;DHT22;499;42.648;23.270;2022-11-23T06:22:21;6.70;99.90
1021;DHT22;499;42.648;23.270;2022-11-23T06:24:48;6.80;99.90
1021;DHT22;499;42.648;23.270;2022-11-23T06:27:16;6.80;99.90
1021;DHT22;499;42.648;23.270;2022-11-23T06:29:43;6.90;99.90
1021;DHT22;499;42.648;23.270;2022-11-23T06:32:11;7.00;99.90
1021;DHT22;499;42.648;23.270;2022-11-23T06:34:38;7.10;99.90
1021;DHT22;499;42.648;23.270;2022-11-23T06:37:05;7.20;99.90
1021;DHT22;499;42.648;23.270;2022-11-23T06:39:32;7.20;99.90
1021;DHT22;499;42.648;23.270;2022-11-23T06:42:00;7.20;99.90
1021;DHT22;499;42.648;23.270;2022-11-23T06:44:29;7.20;99.90
1021;DHT22;499;42.648;23.270;2022-11-23T06:46:56;7.20;99.90
1021;DHT22;499;42.648;23.270;2022-11-23T06:49:23;7.40;99.90
1021;DHT22;499;42.648;23.270;2022-11-23T06:51:50;7.50;99.90
1021;DHT22;499;42.648;23.270;2022-11-23T06:54:18;7.50;99.90
1021;DHT22;499;42.648;23.270;2022-11-23T06:56:45;7.60;99.90
1021;DHT22;499;42.648;23.270;2022-11-23T06:59:12;7.60;99.90
1021;DHT22;499;42.648;23.270;2022-11-23T07:01:41;7.60;99.90
1021;DHT22;499;42.648;23.270;2022-11-23T07:04:08;7.40;99.90
1021;DHT22;499;42.648;23.270;2022-11-23T07:06:38;7.60;99.90
1021;DHT22;499;42.648;23.270;2022-11-23T07:09:06;7.60;99.90
1021;DHT22;499;42.648;23.270;2022-11-23T07:11:34;7.60;99.90
1021;DHT22;499;42.648;23.270;2022-11-23T07:14:01;7.70;99.90
1021;DHT22;499;42.648;23.270;2022-11-23T07:16:28;7.80;99.90
1021;DHT22;499;42.648;23.270;2022-11-23T07:18:56;7.80;99.90
1021;DHT22;499;42.648;23.270;2022-11-23T07:21:24;7.90;99.90
1021;DHT22;499;42.648;23.270;2022-11-23T07:23:51;8.00;99.90
1021;DHT22;499;42.648;23.270;2022-11-23T07:26:18;7.80;99.90
1021;DHT22;499;42.648;23.270;2022-11-23T07:28:45;7.80;99.90
1021;DHT22;499;42.648;23.270;2022-11-23T07:31:12;7.70;99.90
1021;DHT22;499;42.648;23.270;2022-11-23T07:33:43;7.80;99.90
1021;DHT22;499;42.648;23.270;2022-11-23T07:36:12;7.80;99.90
1021;DHT22;499;42.648;23.270;2022-11-23T07:38:39;7.90;99.90
1021;DHT22;499;42.648;23.270;2022-11-23T07:41:06;7.90;99.90
1021;DHT22;499;42.648;23.270;2022-11-23T07:43:33;8.10;99.90
1021;DHT22;499;42.648;23.270;2022-11-23T07:46:01;8.30;99.90
1021;DHT22;499;42.648;23.270;2022-11-23T07:48:28;8.50;99.90
1021;DHT22;499;42.648;23.270;2022-11-23T07:50:55;8.30;99.90
1021;DHT22;499;42.648;23.270;2022-11-23T07:53:23;8.40;99.90
1021;DHT22;499;42.648;23.270;2022-11-23T07:55:54;8.50;99.90
1021;DHT22;499;42.648;23.270;2022-11-23T07:58:22;8.50;99.90
1021;DHT22;499;42.648;23.270;2022-11-23T08:00:49;8.20;99.90
1021;DHT22;499;42.648;23.270;2022-11-23T08:03:16;8.10;99.90
1021;DHT22;499;42.648;23.270;2022-11-23T08:05:43;8.20;99.90
1021;DHT22;499;42.648;23.270;2022-11-23T08:08:10;8.40;99.90
1021;DHT22;499;42.648;23.270;2022-11-23T08:10:38;8.40;99.90
1021;DHT22;499;42.648;23.270;2022-11-23T08:13:06;8.50;99.90
1021;DHT22;499;42.648;23.270;2022-11-23T08:15:34;8.60;99.90
1021;DHT22;499;42.648;23.270;2022-11-23T08:18:02;8.80;99.90
1021;DHT22;499;42.648;23.270;2022-11-23T08:20:30;8.80;99.90
1021;DHT22;499;42.648;23.270;2022-11-23T08:22:58;8.80;99.90
1021;DHT22;499;42.648;23.270;2022-11-23T08:25:27;9.00;99.90
1021;DHT22;499;42.648;23.270;2022-11-23T08:27:57;9.20;99.90
1021;DHT22;499;42.648;23.270;2022-11-23T08:30:24;9.40;99.90
1021;DHT22;499;42.648;23.270;2022-11-23T08:32:51;9.50;99.90
1021;DHT22;499;42.648;23.270;2022-11-23T08:35:18;9.50;99.90
1021;DHT22;499;42.648;23.270;2022-11-23T08:37:45;9.60;99.90
1021;DHT22;499;42.648;23.270;2022-11-23T08:40:13;9.70;99.90
1021;DHT22;499;42.648;23.270;2022-11-23T08:42:41;9.60;99.90
1021;DHT22;499;42.648;23.270;2022-11-23T08:45:10;9.40;99.90
1021;DHT22;499;42.648;23.270;2022-11-23T08:47:37;9.50;99.90
1021;DHT22;499;42.648;23.270;2022-11-23T08:50:05;9.70;99.90
1021;DHT22;499;42.648;23.270;2022-11-23T08:52:32;9.70;99.90
1021;DHT22;499;42.648;23.270;2022-11-23T08:54:59;9.70;99.90
1021;DHT22;499;42.648;23.270;2022-11-23T08:57:26;9.60;99.90
1021;DHT22;499;42.648;23.270;2022-11-23T08:59:53;9.60;99.90
1021;DHT22;499;42.648;23.270;2022-11-23T09:02:22;9.70;99.90
1021;DHT22;499;42.648;23.270;2022-11-23T09:04:49;9.70;99.90
1021;DHT22;499;42.648;23.270;2022-11-23T09:07:16;9.70;99.90
1021;DHT22;499;42.648;23.270;2022-11-23T09:09:43;9.70;99.90
1021;DHT22;499;42.648;23.270;2022-11-23T09:12:10;9.60;99.90
1021;DHT22;499;42.648;23.270;2022-11-23T09:14:37;9.50;99.90
1021;DHT22;499;42.648;23.270;2022-11-23T09:17:04;9.60;99.90
1021;DHT22;499;42.648;23.270;2022-11-23T09:19:34;9.50;99.90
1021;DHT22;499;42.648;23.270;2022-11-23T09:22:01;9.50;99.90
1021;DHT22;499;42.648;23.270;2022-11-23T09:24:28;9.60;99.90
1021;DHT22;499;42.648;23.270;2022-11-23T09:26:55;9.70;99.90
1021;DHT22;499;42.648;23.270;2022-11-23T09:29:23;9.80;99.90
1021;DHT22;499;42.648;23.270;2022-11-23T09:31:51;9.90;99.90
1021;DHT22;499;42.648;23.270;2022-11-23T09:34:18;10.10;99.90
1021;DHT22;499;42.648;23.270;2022-11-23T09:36:48;10.20;99.90
1021;DHT22;499;42.648;23.270;2022-11-23T09:39:15;10.30;99.90
1021;DHT22;499;42.648;23.270;2022-11-23T09:42:07;10.30;99.90
1021;DHT22;499;42.648;23.270;2022-11-23T09:44:47;10.20;99.50
1021;DHT22;499;42.648;23.270;2022-11-23T09:47:34;10.30;99.60
1021;DHT22;499;42.648;23.270;2022-11-23T09:50:11;10.30;99.90
1021;DHT22;499;42.648;23.270;2022-11-23T09:52:45;10.20;99.90
1021;DHT22;499;42.648;23.270;2022-11-23T09:55:18;10.10;99.30
1021;DHT22;499;42.648;23.270;2022-11-23T09:57:48;10.20;99.90
1021;DHT22;499;42.648;23.270;2022-11-23T10:00:20;10.30;99.90
1021;DHT22;499;42.648;23.270;2022-11-23T10:02:47;10.30;99.80
1021;DHT22;499;42.648;23.270;2022-11-23T10:05:17;10.30;99.90
1021;DHT22;499;42.648;23.270;2022-11-23T10:07:59;10.40;99.90
1021;DHT22;499;42.648;23.270;2022-11-23T10:10:38;10.50;99.20
1021;DHT22;499;42.648;23.270;2022-11-23T10:13:26;10.70;99.90
1021;DHT22;499;42.648;23.270;2022-11-23T10:16:08;10.70;79.60
1021;DHT22;499;42.648;23.270;2022-11-23T10:18:45;10.90;86.20
1021;DHT22;499;42.648;23.270;2022-11-23T10:21:20;11.00;84.00
1021;DHT22;499;42.648;23.270;2022-11-23T10:23:55;11.20;90.10
1021;DHT22;499;42.648;23.270;2022-11-23T10:26:27;11.10;92.20
1021;DHT22;499;42.648;23.270;2022-11-23T10:28:57;11.10;92.50
1021;DHT22;499;42.648;23.270;2022-11-23T10:31:24;11.10;92.90
1021;DHT22;499;42.648;23.270;2022-11-23T10:33:58;11.10;93.10
1021;DHT22;499;42.648;23.270;2022-11-23T10:36:28;11.00;94.00
1021;DHT22;499;42.648;23.270;2022-11-23T10:38:59;10.80;95.00
1021;DHT22;499;42.648;23.270;2022-11-23T10:41:29;10.80;64.20
1021;DHT22;499;42.648;23.270;2022-11-23T10:44:03;11.00;74.00
1021;DHT22;499;42.648;23.270;2022-11-23T10:46:37;11.20;64.60
1021;DHT22;499;42.648;23.270;2022-11-23T10:49:13;11.30;46.60
1021;DHT22;499;42.648;23.270;2022-11-23T10:51:49;11.60;32.30
1021;DHT22;499;42.648;23.270;2022-11-23T10:54:21;11.90;40.30
1021;DHT22;499;42.648;23.270;2022-11-23T10:56:50;12.00;37.50
1021;DHT22;499;42.648;23.270;2022-11-23T10:59:35;12.00;32.70
1021;DHT22;499;42.648;23.270;2022-11-23T11:02:14;12.10;35.30
1021;DHT22;499;42.648;23.270;2022-11-23T11:04:42;12.10;39.20
1021;DHT22;499;42.648;23.270;2022-11-23T11:07:16;12.10;32.90
1021;DHT22;499;42.648;23.270;2022-11-23T11:09:50;12.10;32.80
1021;DHT22;499;42.648;23.270;2022-11-23T11:12:17;12.10;36.40
1021;DHT22;499;42.648;23.270;2022-11-23T11:14:55;12.10;31.20
1021;DHT22;499;42.648;23.270;2022-11-23T11:17:28;11.90;32.60
1021;DHT22;499;42.648;23.270;2022-11-23T11:19:55;11.90;31.70
1021;DHT22;499;42.648;23.270;2022-11-23T11:22:28;11.90;33.80
1021;DHT22;499;42.648;23.270;2022-11-23T11:24:59;11.80;31.10
1021;DHT22;499;42.648;23.270;2022-11-23T11:27:29;11.80;29.90
1021;DHT22;499;42.648;23.270;2022-11-23T11:30:00;11.80;31.20
1021;DHT22;499;42.648;23.270;2022-11-23T11:32:35;11.90;32.60
1021;DHT22;499;42.648;23.270;2022-11-23T11:35:10;11.90;34.20
1021;DHT22;499;42.648;23.270;2022-11-23T11:37:40;12.00;28.40
1021;DHT22;499;42.648;23.270;2022-11-23T11:40:18;12.00;28.40
1021;DHT22;499;42.648;23.270;2022-11-23T11:42:51;12.10;30.00
1021;DHT22;499;42.648;23.270;2022-11-23T11:45:23;12.30;30.90
1021;DHT22;499;42.648;23.270;2022-11-23T11:47:55;12.40;27.30
1021;DHT22;499;42.648;23.270;2022-11-23T11:50:25;12.60;26.80
1021;DHT22;499;42.648;23.270;2022-11-23T11:52:57;12.60;25.10
1021;DHT22;499;42.648;23.270;2022-11-23T11:55:32;12.70;25.10
1021;DHT22;499;42.648;23.270;2022-11-23T11:58:03;12.70;24.10
1021;DHT22;499;42.648;23.270;2022-11-23T12:00:36;12.80;22.70
1021;DHT22;499;42.648;23.270;2022-11-23T12:03:11;12.70;22.90
1021;DHT22;499;42.648;23.270;2022-11-23T12:05:45;12.70;24.30
1021;DHT22;499;42.648;23.270;2022-11-23T12:08:17;12.80;23.40
1021;DHT22;499;42.648;23.270;2022-11-23T12:10:49;12.80;25.20
1021;DHT22;499;42.648;23.270;2022-11-23T12:13:18;12.70;27.90
1021;DHT22;499;42.648;23.270;2022-11-23T12:15:48;12.70;26.70
1021;DHT22;499;42.648;23.270;2022-11-23T12:18:44;12.60;28.80
1021;DHT22;499;42.648;23.270;2022-11-23T12:21:25;12.50;23.70
1021;DHT22;499;42.648;23.270;2022-11-23T12:24:02;12.30;25.30
1021;DHT22;499;42.648;23.270;2022-11-23T12:26:43;12.40;25.80
1021;DHT22;499;42.648;23.270;2022-11-23T12:29:28;12.50;25.00
1021;DHT22;499;42.648;23.270;2022-11-23T12:32:02;12.50;26.50
1021;DHT22;499;42.648;23.270;2022-11-23T12:34:45;12.20;27.20
1021;DHT22;499;42.648;23.270;2022-11-23T12:37:26;12.30;26.60
1021;DHT22;499;42.648;23.270;2022-11-23T12:40:11;12.30;25.90
1021;DHT22;499;42.648;23.270;2022-11-23T12:42:44;12.30;24.50
1021;DHT22;499;42.648;23.270;2022-11-23T12:48:14;12.20;25.80
1021;DHT22;499;42.648;23.270;2022-11-23T12:50:49;12.20;25.60
1021;DHT22;499;42.648;23.270;2022-11-23T12:53:30;12.20;23.70
1021;DHT22;499;42.648;23.270;2022-11-23T12:56:06;12.10;24.70
1021;DHT22;499;42.648;23.270;2022-11-23T12:58:39;12.00;24.60
1021;DHT22;499;42.648;23.270;2022-11-23T13:01:11;11.90;24.60
1021;DHT22;499;42.648;23.270;2022-11-23T13:04:15;11.90;24.60
1021;DHT22;499;42.648;23.270;2022-11-23T13:10:14;11.70;24.40
1021;DHT22;499;42.648;23.270;2022-11-23T13:13:07;11.60;24.10
1021;DHT22;499;42.648;23.270;2022-11-23T13:16:09;11.50;23.80
1021;DHT22;499;42.648;23.270;2022-11-23T13:18:53;11.50;24.30
1021;DHT22;499;42.648;23.270;2022-11-23T13:21:26;11.40;24.20
1021;DHT22;499;42.648;23.270;2022-11-23T13:23:55;11.40;24.60
1021;DHT22;499;42.648;23.270;2022-11-23T13:26:23;11.40;24.50
1021;DHT22;499;42.648;23.270;2022-11-23T13:28:51;11.40;24.90
1021;DHT22;499;42.648;23.270;2022-11-23T13:31:22;11.40;24.50
1021;DHT22;499;42.648;23.270;2022-11-23T13:33:52;11.40;23.80
1021;DHT22;499;42.648;23.270;2022-11-23T13:36:39;11.50;23.50
1021;DHT22;499;42.648;23.270;2022-11-23T13:42:24;11.50;23.80
1021;DHT22;499;42.648;23.270;2022-11-23T13:45:25;11.60;24.20
1021;DHT22;499;42.648;23.270;2022-11-23T13:48:13;11.60;23.60
1021;DHT22;499;42.648;23.270;2022-11-23T13:50:56;11.60;24.00
1021;DHT22;499;42.648;23.270;2022-11-23T13:53:26;11.60;24.40
1021;DHT22;499;42.648;23.270;2022-11-23T13:55:56;11.60;24.50
1021;DHT22;499;42.648;23.270;2022-11-23T13:58:38;11.60;23.60
1021;DHT22;499;42.648;23.270;2022-11-23T14:01:06;11.60;22.80
1021;DHT22;499;42.648;23.270;2022-11-23T14:04:17;11.60;21.20
1021;DHT22;499;42.648;23.270;2022-11-23T14:06:46;11.60;21.30
1021;DHT22;499;42.648;23.270;2022-11-23T14:09:20;11.60;21.40
1021;DHT22;499;42.648;23.270;2022-11-23T14:12:19;11.60;20.50
1021;DHT22;499;42.648;23.270;2022-11-23T14:14:57;11.50;22.00
1021;DHT22;499;42.648;23.270;2022-11-23T14:20:57;11.50;20.90
1021;DHT22;499;42.648;23.270;2022-11-23T14:26:43;11.40;22.30
1021;DHT22;499;42.648;23.270;2022-11-23T14:29:27;11.40;23.60
1021;DHT22;499;42.648;23.270;2022-11-23T14:32:24;11.30;24.20
1021;DHT22;499;42.648;23.270;2022-11-23T14:35:07;11.20;24.10
1021;DHT22;499;42.648;23.270;2022-11-23T14:37:46;11.20;24.40
1021;DHT22;499;42.648;23.270;2022-11-23T14:40:20;11.30;24.20
1021;DHT22;499;42.648;23.270;2022-11-23T14:42:53;11.30;25.00
1021;DHT22;499;42.648;23.270;2022-11-23T14:45:22;11.30;24.20
1021;DHT22;499;42.648;23.270;2022-11-23T14:47:49;11.30;24.70
1021;DHT22;499;42.648;23.270;2022-11-23T14:50:20;11.20;25.30
1021;DHT22;499;42.648;23.270;2022-11-23T14:52:49;11.20;25.00
1021;DHT22;499;42.648;23.270;2022-11-23T14:55:21;11.20;26.10
1021;DHT22;499;42.648;23.270;2022-11-23T14:57:49;11.20;25.60
1021;DHT22;499;42.648;23.270;2022-11-23T15:00:30;11.10;25.10
1021;DHT22;499;42.648;23.270;2022-11-23T15:03:04;11.10;24.60
1021;DHT22;499;42.648;23.270;2022-11-23T15:05:33;11.10;25.50
1021;DHT22;499;42.648;23.270;2022-11-23T15:08:05;11.10;25.20
1021;DHT22;499;42.648;23.270;2022-11-23T15:10:41;11.10;25.00
1021;DHT22;499;42.648;23.270;2022-11-23T15:13:18;11.10;24.60
1021;DHT22;499;42.648;23.270;2022-11-23T15:15:48;11.10;25.30
1021;DHT22;499;42.648;23.270;2022-11-23T15:18:26;11.10;24.00
1021;DHT22;499;42.648;23.270;2022-11-23T15:20:56;11.10;24.00
1021;DHT22;499;42.648;23.270;2022-11-23T15:23:32;11.10;24.00
1021;DHT22;499;42.648;23.270;2022-11-23T15:26:02;11.10;24.00
1021;DHT22;499;42.648;23.270;2022-11-23T15:28:32;11.10;24.00
1021;DHT22;499;42.648;23.270;2022-11-23T15:31:16;11.20;23.70
1021;DHT22;499;42.648;23.270;2022-11-23T15:33:45;11.10;24.00
1021;DHT22;499;42.648;23.270;2022-11-23T15:36:15;11.10;23.90
1021;DHT22;499;42.648;23.270;2022-11-23T15:38:44;11.10;22.60
1021;DHT22;499;42.648;23.270;2022-11-23T15:41:11;11.10;22.70
1021;DHT22;499;42.648;23.270;2022-11-23T15:43:50;11.10;23.10
1021;DHT22;499;42.648;23.270;2022-11-23T15:46:17;11.00;23.00
1021;DHT22;499;42.648;23.270;2022-11-23T15:48:47;11.00;23.50
1021;DHT22;499;42.648;23.270;2022-11-23T15:51:27;11.00;22.90
1021;DHT22;499;42.648;23.270;2022-11-23T15:53:58;11.00;23.50
1021;DHT22;499;42.648;23.270;2022-11-23T15:56:28;11.00;24.00
1021;DHT22;499;42.648;23.270;2022-11-23T15:58:56;11.00;24.50
1021;DHT22;499;42.648;23.270;2022-11-23T16:01:24;11.00;24.10
1021;DHT22;499;42.648;23.270;2022-11-23T16:03:53;11.00;24.90
1021;DHT22;499;42.648;23.270;2022-11-23T16:06:34;11.00;24.20
1021;DHT22;499;42.648;23.270;2022-11-23T16:11:45;10.90;24.70
1021;DHT22;499;42.648;23.270;2022-11-23T16:14:15;10.90;23.90
1021;DHT22;499;42.648;23.270;2022-11-23T16:16:44;10.90;23.90
1021;DHT22;499;42.648;23.270;2022-11-23T16:19:25;10.90;23.90
1021;DHT22;499;42.648;23.270;2022-11-23T16:21:56;10.90;24.80
1021;DHT22;499;42.648;23.270;2022-11-23T16:24:25;11.00;24.10
1021;DHT22;499;42.648;23.270;2022-11-23T16:26:53;10.90;23.50
1021;DHT22;499;42.648;23.270;2022-11-23T16:29:24;10.90;24.00
1021;DHT22;499;42.648;23.270;2022-11-23T16:31:54;10.90;24.10
1021;DHT22;499;42.648;23.270;2022-11-23T16:34:22;10.90;23.90
1021;DHT22;499;42.648;23.270;2022-11-23T16:36:52;10.90;23.90
1021;DHT22;499;42.648;23.270;2022-11-23T16:39:20;10.80;24.50
1021;DHT22;499;42.648;23.270;2022-11-23T16:41:49;10.60;25.80
1021;DHT22;499;42.648;23.270;2022-11-23T16:44:16;10.70;27.30
1021;DHT22;499;42.648;23.270;2022-11-23T16:46:43;10.50;28.20
1021;DHT22;499;42.648;23.270;2022-11-23T16:49:15;10.40;29.70
1021;DHT22;499;42.648;23.270;2022-11-23T16:51:43;10.30;32.70
1021;DHT22;499;42.648;23.270;2022-11-23T16:54:10;10.30;33.80